sim
Sign-in with your pilot id or email,
or register
Callsign
Passwort

Schedule Details

Flight Number: DLH2249 (1)
Departure: Lyon Saint Exupery Airport (LFLL) at 12:20
Arrival: Munich Airport (EDDM) at 13:40
Route: Lufthansa Passenger Schedule. Enter filed route here before submitting Pirep.

Weather Information
Getting current METAR information for LFLL 240830Z 19007KT CAVOK 19/16 Q1010 NOSIG
Getting current METAR information for EDDM 240850Z 25008KT CAVOK 17/14 Q1011 NOSIG

Schedule Frequency

Route Map